Abbott, Argentina
Current Conditions -  °F | °C
As of 11:00 AM on Monday 22 Dec 2014 (Local Time) from SAEZ Reporting Station
Few Clouds Few Clouds  
Wind Chill: 19°   Ceiling: Unl
Heat Index: 19°   Visibility: 6mi
Dew Point: 10°   Wind: 14mph
Humidity: 56%   Direction: 230°SW
Pressure: 30.09"   Gusts: NA
Location:  35.28°S, 58.8°W
Report Text: SAEZ 221400Z 23012KT 210V270 9999 FEW035TCU 19/10 Q1019
Loading
Personal Weather Stations






























Interactive Weather Map New forecast layout! Learn more

10-Day Weather Forecast

Advertisements
Track Severe Weather on mobile